createdAt,value
2023-04-16T00:01:06.483Z,14.89
2023-04-16T00:03:33.757Z,14.92
2023-04-16T00:06:00.965Z,14.89
2023-04-16T00:08:27.757Z,14.89
2023-04-16T00:10:57.044Z,14.91
2023-04-16T00:13:23.849Z,14.91
2023-04-16T00:15:50.682Z,14.89
2023-04-16T00:18:17.476Z,14.91
2023-04-16T00:20:44.353Z,14.89
2023-04-16T00:23:11.172Z,14.89
2023-04-16T00:25:37.976Z,14.86
2023-04-16T00:28:05.807Z,14.92
2023-04-16T00:30:32.667Z,14.91
2023-04-16T00:33:00.099Z,14.87
2023-04-16T00:35:27.340Z,14.88
2023-04-16T00:37:54.116Z,14.91
2023-04-16T00:40:21.017Z,14.93
2023-04-16T00:42:47.899Z,14.92
2023-04-16T00:45:14.732Z,14.91
2023-04-16T00:47:41.604Z,14.95
2023-04-16T00:50:08.683Z,14.93
2023-04-16T00:52:35.625Z,14.91
2023-04-16T00:55:02.866Z,14.92
2023-04-16T00:57:29.581Z,14.91
2023-04-16T00:59:56.795Z,14.90
2023-04-16T01:02:24.026Z,14.90
2023-04-16T01:04:51.259Z,14.89
2023-04-16T01:07:18.258Z,14.90
2023-04-16T01:09:44.982Z,14.91
2023-04-16T01:12:11.741Z,14.89
2023-04-16T01:14:38.548Z,14.91
2023-04-16T01:17:05.276Z,14.92
2023-04-16T01:19:32.133Z,14.94
2023-04-16T01:21:59.334Z,14.93
2023-04-16T01:24:26.168Z,14.93
2023-04-16T01:26:52.986Z,14.96
2023-04-16T01:29:19.720Z,14.94
2023-04-16T01:31:47.184Z,14.91
2023-04-16T01:34:14.052Z,14.92
2023-04-16T01:36:40.820Z,14.91
2023-04-16T01:39:08.015Z,14.93
2023-04-16T01:41:34.946Z,14.90
2023-04-16T01:44:01.799Z,14.90
2023-04-16T01:46:29.590Z,14.94
2023-04-16T01:48:56.801Z,14.96
2023-04-16T01:51:24.397Z,14.96
2023-04-16T01:53:51.327Z,14.94
2023-04-16T01:56:18.116Z,14.94
2023-04-16T01:58:46.367Z,14.94
2023-04-16T02:01:13.789Z,14.90
2023-04-16T02:03:40.958Z,14.89
2023-04-16T02:06:07.901Z,14.92
2023-04-16T02:08:34.745Z,14.91
2023-04-16T02:11:01.862Z,14.93
2023-04-16T02:13:28.673Z,14.95
2023-04-16T02:15:55.478Z,14.92
2023-04-16T02:18:22.222Z,14.93
2023-04-16T02:20:50.124Z,14.94
2023-04-16T02:23:17.132Z,14.93
2023-04-16T02:25:45.482Z,14.95
2023-04-16T02:28:13.531Z,14.96
2023-04-16T02:30:40.652Z,14.97
2023-04-16T02:33:08.718Z,14.96
2023-04-16T02:35:35.659Z,14.94
2023-04-16T02:38:02.877Z,14.94
2023-04-16T02:40:30.176Z,14.95
2023-04-16T02:42:57.533Z,14.93
2023-04-16T02:45:24.561Z,14.95
2023-04-16T02:47:51.985Z,14.94
2023-04-16T02:50:18.881Z,14.95
2023-04-16T02:52:45.696Z,14.94
2023-04-16T02:55:12.470Z,14.94
2023-04-16T02:57:39.213Z,14.95
2023-04-16T03:00:06.437Z,14.96
2023-04-16T03:02:33.327Z,14.94
2023-04-16T03:05:00.206Z,14.95
2023-04-16T03:07:29.559Z,14.91
2023-04-16T03:09:56.299Z,14.91
2023-04-16T03:12:23.040Z,14.91
2023-04-16T03:14:50.984Z,14.90
2023-04-16T03:17:17.858Z,14.89
2023-04-16T03:19:44.626Z,14.93
2023-04-16T03:22:13.697Z,14.94
2023-04-16T03:24:40.395Z,14.90
2023-04-16T03:27:07.161Z,14.91
2023-04-16T03:29:33.941Z,14.94
2023-04-16T03:32:00.901Z,14.93
2023-04-16T03:34:27.706Z,14.92
2023-04-16T03:36:54.503Z,14.92
2023-04-16T03:39:21.223Z,14.91
2023-04-16T03:41:47.972Z,14.94
2023-04-16T03:44:14.833Z,14.91
2023-04-16T03:46:41.622Z,14.92
2023-04-16T03:49:08.732Z,14.92
2023-04-16T03:51:35.757Z,14.91
2023-04-16T03:54:02.481Z,14.94
2023-04-16T03:56:29.259Z,14.93
2023-04-16T03:58:56.221Z,14.93
2023-04-16T04:01:22.999Z,14.92
2023-04-16T04:03:49.937Z,14.94
2023-04-16T04:06:16.920Z,14.94
2023-04-16T04:08:43.806Z,14.93
2023-04-16T04:11:10.551Z,14.95
2023-04-16T04:13:37.304Z,14.94
2023-04-16T04:16:04.586Z,14.95
2023-04-16T04:18:31.331Z,14.95
2023-04-16T04:20:58.191Z,14.95
2023-04-16T04:23:24.963Z,14.93
2023-04-16T04:25:51.779Z,14.95
2023-04-16T04:28:18.608Z,14.93
2023-04-16T04:30:45.583Z,14.93
2023-04-16T04:33:12.404Z,14.96
2023-04-16T04:35:39.164Z,14.93
2023-04-16T04:38:06.098Z,14.94
2023-04-16T04:40:35.247Z,14.96
2023-04-16T04:43:02.051Z,14.96
2023-04-16T04:45:31.193Z,14.93
2023-04-16T04:47:58.724Z,14.94
2023-04-16T04:50:25.468Z,14.93
2023-04-16T04:52:52.236Z,14.93
2023-04-16T04:55:19.033Z,14.93
2023-04-16T04:57:45.832Z,14.92
2023-04-16T05:00:13.108Z,14.95
2023-04-16T05:02:40.109Z,14.95
2023-04-16T05:05:07.326Z,14.94
2023-04-16T05:07:34.605Z,14.95
2023-04-16T05:10:01.510Z,14.93
2023-04-16T05:12:28.314Z,14.94
2023-04-16T05:14:55.116Z,14.94
2023-04-16T05:17:21.929Z,14.95
2023-04-16T05:19:48.876Z,14.93
2023-04-16T05:22:19.173Z,14.94
2023-04-16T05:24:46.098Z,14.96
2023-04-16T05:27:12.887Z,14.93
2023-04-16T05:29:39.609Z,14.95
2023-04-16T05:32:06.509Z,14.95
2023-04-16T05:34:33.327Z,14.96
2023-04-16T05:37:00.158Z,14.95
2023-04-16T05:39:27.343Z,14.96
2023-04-16T05:41:54.114Z,14.96
2023-04-16T05:44:20.970Z,14.96
2023-04-16T05:46:50.348Z,14.96
2023-04-16T05:49:19.015Z,14.97
2023-04-16T05:51:46.029Z,14.96
2023-04-16T05:54:12.796Z,14.95
2023-04-16T05:56:39.586Z,14.94
2023-04-16T05:59:06.434Z,14.95
2023-04-16T06:01:34.402Z,14.96
2023-04-16T06:04:01.693Z,14.95
2023-04-16T06:06:28.561Z,14.94
2023-04-16T06:08:57.984Z,14.95
2023-04-16T06:11:24.831Z,14.97
2023-04-16T06:13:51.776Z,14.97
2023-04-16T06:16:18.649Z,14.95
2023-04-16T06:18:45.442Z,14.96
2023-04-16T06:21:12.399Z,14.93
2023-04-16T06:23:39.217Z,14.95
2023-04-16T06:26:05.960Z,14.98
2023-04-16T06:28:32.764Z,14.95
2023-04-16T06:31:00.325Z,14.95
2023-04-16T06:33:27.137Z,14.94
2023-04-16T06:35:53.960Z,14.95
2023-04-16T06:38:20.837Z,14.97
2023-04-16T06:40:48.740Z,14.96
2023-04-16T06:43:16.200Z,14.96
2023-04-16T06:45:42.991Z,14.97
2023-04-16T06:48:09.771Z,14.98
2023-04-16T06:50:36.584Z,14.96
2023-04-16T06:53:03.535Z,14.95
2023-04-16T06:55:30.692Z,14.96
2023-04-16T06:57:57.401Z,14.97
2023-04-16T07:00:24.178Z,14.95
2023-04-16T07:02:51.349Z,14.97
2023-04-16T07:05:18.354Z,14.96
2023-04-16T07:07:45.202Z,14.98
2023-04-16T07:10:12.197Z,14.99
2023-04-16T07:12:41.455Z,14.97
2023-04-16T07:15:08.541Z,14.99
2023-04-16T07:17:35.615Z,14.96
2023-04-16T07:20:02.525Z,14.97
2023-04-16T07:22:29.482Z,14.99
2023-04-16T07:24:56.801Z,14.98
2023-04-16T07:27:23.653Z,14.98
2023-04-16T07:29:51.254Z,14.97
2023-04-16T07:32:18.277Z,14.96
2023-04-16T07:34:45.092Z,14.98
2023-04-16T07:37:11.963Z,14.98
2023-04-16T07:39:38.817Z,14.98
2023-04-16T07:42:06.138Z,15.00
2023-04-16T07:44:33.151Z,14.99
2023-04-16T07:46:59.945Z,14.97
2023-04-16T07:49:26.688Z,15.00
2023-04-16T07:51:53.516Z,15.02
2023-04-16T07:54:22.769Z,15.02
2023-04-16T07:56:49.507Z,15.03
2023-04-16T07:59:22.511Z,15.01
2023-04-16T08:01:53.846Z,15.03
2023-04-16T08:04:25.658Z,15.02
2023-04-16T08:06:53.245Z,15.03
2023-04-16T08:09:21.891Z,15.03
2023-04-16T08:11:50.165Z,15.02
2023-04-16T08:14:17.490Z,15.03
2023-04-16T08:16:44.712Z,15.02
2023-04-16T08:19:11.651Z,15.04
2023-04-16T08:21:41.114Z,15.04
2023-04-16T08:24:08.346Z,15.05
2023-04-16T08:26:37.495Z,15.05
2023-04-16T08:29:04.275Z,15.06
2023-04-16T08:31:31.105Z,15.07
2023-04-16T08:33:58.060Z,15.07
2023-04-16T08:36:25.073Z,15.07
2023-04-16T08:38:52.600Z,15.06
2023-04-16T08:41:22.104Z,15.08
2023-04-16T08:43:51.069Z,15.07
2023-04-16T08:46:18.191Z,15.07
2023-04-16T08:48:48.634Z,15.08
2023-04-16T08:51:17.599Z,15.07
2023-04-16T08:53:53.601Z,15.07
2023-04-16T08:56:21.503Z,15.07
2023-04-16T08:58:49.211Z,15.10
2023-04-16T09:01:17.642Z,15.10
2023-04-16T09:03:48.874Z,15.09
2023-04-16T09:06:17.788Z,15.11
2023-04-16T09:08:45.248Z,15.12
2023-04-16T09:11:13.628Z,15.13
2023-04-16T09:13:40.661Z,15.13
2023-04-16T09:16:07.967Z,15.16
2023-04-16T09:18:34.917Z,15.17
2023-04-16T09:21:01.953Z,15.18
2023-04-16T09:23:29.605Z,15.20
2023-04-16T09:25:57.689Z,15.21
2023-04-16T09:28:43.372Z,15.23
2023-04-16T09:31:11.679Z,15.24
2023-04-16T09:33:38.825Z,15.26
2023-04-16T09:36:06.379Z,15.28
2023-04-16T09:38:42.624Z,15.28
2023-04-16T09:41:09.620Z,15.28
2023-04-16T09:43:37.276Z,15.27
2023-04-16T09:46:08.202Z,15.30
2023-04-16T09:48:35.326Z,15.32
2023-04-16T09:51:02.346Z,15.30
2023-04-16T09:53:30.149Z,15.34
2023-04-16T09:55:58.290Z,15.33
2023-04-16T09:58:25.274Z,15.33
2023-04-16T10:01:12.079Z,15.36
2023-04-16T10:03:40.225Z,15.39
2023-04-16T10:06:07.547Z,15.36
2023-04-16T10:08:34.332Z,15.37
2023-04-16T10:11:01.622Z,15.35
2023-04-16T10:13:28.492Z,15.39
2023-04-16T10:15:58.342Z,15.37
2023-04-16T10:18:25.212Z,15.37
2023-04-16T10:20:52.233Z,15.39
2023-04-16T10:23:23.404Z,15.41
2023-04-16T10:25:50.678Z,15.40
2023-04-16T10:28:17.661Z,15.39
2023-04-16T10:30:53.086Z,15.39
2023-04-16T10:33:21.225Z,15.45
2023-04-16T10:35:57.610Z,15.43
2023-04-16T10:38:32.940Z,15.47
2023-04-16T10:41:01.093Z,15.48
2023-04-16T10:43:28.929Z,15.47
2023-04-16T10:45:56.176Z,15.43
2023-04-16T10:48:24.947Z,15.46
2023-04-16T10:50:56.387Z,15.45
2023-04-16T10:53:26.091Z,15.45
2023-04-16T10:56:02.287Z,15.49
2023-04-16T10:58:30.972Z,15.45
2023-04-16T11:01:01.654Z,15.44
2023-04-16T11:03:32.727Z,15.48
2023-04-16T11:06:09.322Z,15.51
2023-04-16T11:08:44.254Z,15.50
2023-04-16T11:11:21.752Z,15.50
2023-04-16T11:13:51.667Z,15.51
2023-04-16T11:16:18.771Z,15.50
2023-04-16T11:18:51.502Z,15.50
2023-04-16T11:21:18.819Z,15.52
2023-04-16T11:23:46.711Z,15.52
2023-04-16T11:26:23.337Z,15.51
2023-04-16T11:28:50.266Z,15.51
2023-04-16T11:31:17.387Z,15.54
2023-04-16T11:33:44.343Z,15.51
2023-04-16T11:36:11.194Z,15.51
2023-04-16T11:38:38.647Z,15.50
2023-04-16T11:41:05.486Z,15.49
2023-04-16T11:43:32.456Z,15.51
2023-04-16T11:46:01.619Z,15.51
2023-04-16T11:48:39.234Z,15.54
2023-04-16T11:51:06.086Z,15.54
2023-04-16T11:53:33.131Z,15.55
2023-04-16T11:55:59.984Z,15.55
2023-04-16T11:58:27.005Z,15.55
2023-04-16T12:00:57.178Z,15.56
2023-04-16T12:03:46.568Z,15.56
2023-04-16T12:06:13.832Z,15.59
2023-04-16T12:08:43.995Z,15.61
2023-04-16T12:11:10.895Z,15.62
2023-04-16T12:13:40.457Z,15.64
2023-04-16T12:16:18.576Z,15.64
2023-04-16T12:18:59.677Z,15.65
2023-04-16T12:21:26.968Z,15.66
2023-04-16T12:23:54.394Z,15.68
2023-04-16T12:26:21.187Z,15.69
2023-04-16T12:28:47.993Z,15.71
2023-04-16T12:31:15.552Z,15.74
2023-04-16T12:33:42.838Z,15.76
2023-04-16T12:36:19.460Z,15.77
2023-04-16T12:38:46.556Z,15.78
2023-04-16T12:41:13.382Z,15.82
2023-04-16T12:43:40.708Z,15.84
2023-04-16T12:46:07.579Z,15.80
2023-04-16T12:48:34.989Z,15.84
2023-04-16T12:51:02.241Z,15.83
2023-04-16T12:53:29.362Z,15.84
2023-04-16T12:55:56.347Z,15.81
2023-04-16T12:58:23.195Z,15.81
2023-04-16T13:00:50.164Z,15.81
2023-04-16T13:03:17.395Z,15.81
2023-04-16T13:05:44.530Z,15.80
2023-04-16T13:08:11.462Z,15.83
2023-04-16T13:10:38.470Z,15.86
2023-04-16T13:13:05.848Z,15.79
2023-04-16T13:15:32.735Z,15.81
2023-04-16T13:17:59.829Z,15.84
2023-04-16T13:20:26.825Z,15.82
2023-04-16T13:22:54.398Z,15.81
2023-04-16T13:25:24.489Z,15.81
2023-04-16T13:27:51.391Z,15.79
2023-04-16T13:30:18.594Z,15.79
2023-04-16T13:32:45.848Z,15.80
2023-04-16T13:35:12.856Z,15.81
2023-04-16T13:37:39.832Z,15.83
2023-04-16T13:40:07.308Z,15.83
2023-04-16T13:42:34.209Z,15.83
2023-04-16T13:45:01.540Z,15.81
2023-04-16T13:47:31.261Z,15.84
2023-04-16T13:49:58.151Z,15.81
2023-04-16T13:52:25.147Z,15.82
2023-04-16T13:54:52.116Z,15.84
2023-04-16T13:57:21.285Z,15.81
2023-04-16T13:59:48.157Z,15.81
2023-04-16T14:02:18.323Z,15.81
2023-04-16T14:04:45.208Z,15.80
2023-04-16T14:07:12.132Z,15.85
2023-04-16T14:09:38.951Z,15.82
2023-04-16T14:12:06.145Z,15.83
2023-04-16T14:14:33.102Z,15.82
2023-04-16T14:17:00.018Z,15.84
2023-04-16T14:19:26.915Z,15.85
2023-04-16T14:21:54.697Z,15.86
2023-04-16T14:24:21.554Z,15.82
2023-04-16T14:26:48.457Z,15.82
2023-04-16T14:29:15.368Z,15.82
2023-04-16T14:31:42.524Z,15.87
2023-04-16T14:34:09.501Z,15.87
2023-04-16T14:36:37.220Z,15.84
2023-04-16T14:39:05.069Z,15.90
2023-04-16T14:41:32.095Z,15.90
2023-04-16T14:44:00.028Z,15.91
2023-04-16T14:46:27.470Z,15.93
2023-04-16T14:48:54.442Z,15.90
2023-04-16T14:51:21.364Z,15.87
2023-04-16T14:53:48.310Z,15.88
2023-04-16T14:56:15.126Z,15.91
2023-04-16T14:58:43.548Z,15.88
2023-04-16T15:01:10.510Z,15.90
2023-04-16T15:03:37.532Z,15.89
2023-04-16T15:06:04.755Z,15.87
2023-04-16T15:08:31.975Z,15.88
2023-04-16T15:10:58.830Z,15.89
2023-04-16T15:13:25.807Z,15.88
2023-04-16T15:15:52.692Z,15.88
2023-04-16T15:18:19.600Z,15.87
2023-04-16T15:20:46.651Z,15.87
2023-04-16T15:23:13.736Z,15.88
2023-04-16T15:25:40.665Z,15.87
2023-04-16T15:28:07.534Z,15.87
2023-04-16T15:30:34.617Z,15.86
2023-04-16T15:33:01.645Z,15.87
2023-04-16T15:35:28.694Z,15.86
2023-04-16T15:37:55.780Z,15.88
2023-04-16T15:40:22.858Z,15.89
2023-04-16T15:42:49.968Z,15.89
2023-04-16T15:45:17.073Z,15.91
2023-04-16T15:47:45.683Z,15.90
2023-04-16T15:50:12.909Z,15.88
2023-04-16T15:52:40.033Z,15.89
2023-04-16T15:55:07.318Z,15.88
2023-04-16T15:57:34.170Z,15.89
2023-04-16T16:00:06.363Z,15.88
2023-04-16T16:02:34.608Z,15.91
2023-04-16T16:05:01.807Z,15.93
2023-04-16T16:07:28.833Z,15.93
2023-04-16T16:09:56.691Z,15.91
2023-04-16T16:12:23.958Z,15.90
2023-04-16T16:14:51.336Z,15.91
2023-04-16T16:17:19.481Z,15.91
2023-04-16T16:19:46.739Z,15.90
2023-04-16T16:22:14.358Z,15.90
2023-04-16T16:24:41.286Z,15.91
2023-04-16T16:27:08.256Z,15.89
2023-04-16T16:29:35.048Z,15.91
2023-04-16T16:32:02.212Z,15.90
2023-04-16T16:34:29.147Z,15.88
2023-04-16T16:36:56.193Z,15.88
2023-04-16T16:39:24.911Z,15.88
2023-04-16T16:41:53.068Z,15.90
2023-04-16T16:44:20.215Z,15.88
2023-04-16T16:46:48.508Z,15.89
2023-04-16T16:49:16.087Z,15.88
2023-04-16T16:51:45.268Z,15.87
2023-04-16T16:54:12.447Z,15.87
2023-04-16T16:56:39.411Z,15.87
2023-04-16T16:59:06.603Z,15.88
2023-04-16T17:01:33.485Z,15.90
2023-04-16T17:04:00.484Z,15.88
2023-04-16T17:06:27.732Z,15.89
2023-04-16T17:08:54.589Z,15.91
2023-04-16T17:11:23.791Z,15.92
2023-04-16T17:13:50.906Z,15.91
2023-04-16T17:16:18.010Z,15.91
2023-04-16T17:18:45.043Z,15.90
2023-04-16T17:21:12.372Z,15.94
2023-04-16T17:23:41.102Z,15.92
2023-04-16T17:26:08.219Z,15.92
2023-04-16T17:28:35.172Z,15.95
2023-04-16T17:31:03.060Z,15.94
2023-04-16T17:33:29.940Z,15.94
2023-04-16T17:35:56.875Z,15.96
2023-04-16T17:38:23.998Z,15.92
2023-04-16T17:40:50.933Z,15.93
2023-04-16T17:43:17.878Z,15.95
2023-04-16T17:45:44.900Z,15.95
2023-04-16T17:48:11.839Z,15.94
2023-04-16T17:50:39.623Z,15.94
2023-04-16T17:53:06.762Z,15.92
2023-04-16T17:55:33.569Z,15.94
2023-04-16T17:58:01.051Z,15.90
2023-04-16T18:00:28.002Z,15.88
2023-04-16T18:02:57.088Z,15.88
2023-04-16T18:05:24.329Z,15.89
2023-04-16T18:07:51.904Z,15.88
2023-04-16T18:10:19.131Z,15.89
2023-04-16T18:12:46.116Z,15.89
2023-04-16T18:15:12.980Z,15.88
2023-04-16T18:17:39.941Z,15.86
2023-04-16T18:20:09.322Z,15.87
2023-04-16T18:22:36.182Z,15.87
2023-04-16T18:25:03.551Z,15.87
2023-04-16T18:27:30.501Z,15.87
2023-04-16T18:29:57.501Z,15.87
2023-04-16T18:32:24.522Z,15.86
2023-04-16T18:34:51.900Z,15.85
2023-04-16T18:37:18.713Z,15.84
2023-04-16T18:39:45.540Z,15.84
2023-04-16T18:42:12.489Z,15.84
2023-04-16T18:44:39.328Z,15.83
2023-04-16T18:47:06.213Z,15.83
2023-04-16T18:49:33.070Z,15.84
2023-04-16T18:51:59.954Z,15.85
2023-04-16T18:54:27.908Z,15.84
2023-04-16T18:56:54.800Z,15.84
2023-04-16T18:59:21.784Z,15.82
2023-04-16T19:01:48.694Z,15.83
2023-04-16T19:04:19.534Z,15.83
2023-04-16T19:06:48.499Z,15.81
2023-04-16T19:09:15.919Z,15.83
2023-04-16T19:11:43.277Z,15.82
2023-04-16T19:14:10.358Z,15.82
2023-04-16T19:16:38.927Z,15.81
2023-04-16T19:19:08.153Z,15.83
2023-04-16T19:21:37.559Z,15.84
2023-04-16T19:24:04.652Z,15.82
2023-04-16T19:26:31.673Z,15.81
2023-04-16T19:28:58.683Z,15.81
2023-04-16T19:31:26.837Z,15.81
2023-04-16T19:33:53.920Z,15.80
2023-04-16T19:36:21.081Z,15.83
2023-04-16T19:38:48.121Z,15.83
2023-04-16T19:41:15.381Z,15.83
2023-04-16T19:43:42.396Z,15.81
2023-04-16T19:46:09.382Z,15.82
2023-04-16T19:48:36.977Z,15.84
2023-04-16T19:51:04.781Z,15.84
2023-04-16T19:53:31.887Z,15.82
2023-04-16T19:55:58.867Z,15.86
2023-04-16T19:58:25.981Z,15.82
2023-04-16T20:00:52.950Z,15.82
2023-04-16T20:03:20.062Z,15.83
2023-04-16T20:05:48.626Z,15.81
2023-04-16T20:08:15.958Z,15.85
2023-04-16T20:10:42.928Z,15.86
2023-04-16T20:13:12.451Z,15.85
2023-04-16T20:15:39.506Z,15.88
2023-04-16T20:18:07.235Z,15.85
2023-04-16T20:20:35.479Z,15.83
2023-04-16T20:23:02.505Z,15.84
2023-04-16T20:25:29.905Z,15.83
2023-04-16T20:27:56.920Z,15.85
2023-04-16T20:30:29.291Z,15.84
2023-04-16T20:32:56.885Z,15.84
2023-04-16T20:35:23.850Z,15.84
2023-04-16T20:37:50.851Z,15.85
2023-04-16T20:40:17.856Z,15.87
2023-04-16T20:42:52.607Z,15.86
2023-04-16T20:45:19.666Z,15.85
2023-04-16T20:47:46.815Z,15.85
2023-04-16T20:50:14.062Z,15.87
2023-04-16T20:52:42.594Z,15.86
2023-04-16T20:55:09.933Z,15.85
2023-04-16T20:57:37.002Z,15.87
2023-04-16T21:00:06.918Z,15.86
2023-04-16T21:02:34.332Z,15.86
2023-04-16T21:05:01.611Z,15.85
2023-04-16T21:07:28.605Z,15.86
2023-04-16T21:09:55.698Z,15.84
2023-04-16T21:12:22.594Z,15.85
2023-04-16T21:14:49.572Z,15.86
2023-04-16T21:17:16.954Z,15.83
2023-04-16T21:19:44.110Z,15.86
2023-04-16T21:22:11.260Z,15.83
2023-04-16T21:24:38.179Z,15.81
2023-04-16T21:27:07.728Z,15.82
2023-04-16T21:29:34.860Z,15.88
2023-04-16T21:32:01.838Z,15.95
2023-04-16T21:34:28.778Z,15.99
2023-04-16T21:36:55.692Z,16.04
2023-04-16T21:39:22.653Z,16.09
2023-04-16T21:41:49.937Z,16.15
2023-04-16T21:44:17.002Z,16.24
2023-04-16T21:46:44.016Z,16.31
2023-04-16T21:49:13.996Z,16.39
2023-04-16T21:51:43.423Z,16.46
2023-04-16T21:54:10.379Z,16.52
2023-04-16T21:56:39.628Z,16.58
2023-04-16T21:59:12.612Z,16.63
2023-04-16T22:01:39.684Z,16.71
2023-04-16T22:04:07.876Z,16.79
2023-04-16T22:06:38.088Z,16.85
2023-04-16T22:09:05.538Z,16.93
2023-04-16T22:11:32.679Z,16.98
2023-04-16T22:13:59.641Z,17.06
2023-04-16T22:16:27.073Z,17.12
2023-04-16T22:18:55.321Z,17.24
2023-04-16T22:21:22.239Z,17.32
2023-04-16T22:23:49.295Z,17.42
2023-04-16T22:26:16.503Z,17.51
2023-04-16T22:28:43.405Z,17.60
2023-04-16T22:31:10.568Z,17.67
2023-04-16T22:33:37.632Z,17.76
2023-04-16T22:36:04.849Z,17.87
2023-04-16T22:38:31.991Z,17.94
2023-04-16T22:40:59.037Z,18.01
2023-04-16T22:43:27.259Z,18.09
2023-04-16T22:46:04.926Z,18.15
2023-04-16T22:48:32.200Z,18.20
2023-04-16T22:50:59.339Z,18.27
2023-04-16T22:53:26.331Z,18.34
2023-04-16T22:55:53.316Z,18.39
2023-04-16T22:58:20.604Z,18.45
2023-04-16T23:00:48.437Z,18.48
2023-04-16T23:03:15.756Z,18.52
2023-04-16T23:05:42.730Z,18.57
2023-04-16T23:08:09.868Z,18.61
2023-04-16T23:10:37.196Z,18.64
2023-04-16T23:13:04.160Z,18.67
2023-04-16T23:15:31.604Z,18.72
2023-04-16T23:17:58.758Z,18.76
2023-04-16T23:20:26.368Z,18.79
2023-04-16T23:22:53.358Z,18.81
2023-04-16T23:25:20.361Z,18.84
2023-04-16T23:27:47.341Z,18.87
2023-04-16T23:30:15.162Z,18.89
2023-04-16T23:32:42.099Z,18.91
2023-04-16T23:35:09.431Z,18.93
2023-04-16T23:37:36.488Z,18.94
2023-04-16T23:40:04.686Z,18.96
2023-04-16T23:42:31.660Z,18.98
2023-04-16T23:44:58.849Z,18.98
2023-04-16T23:47:25.828Z,18.99
2023-04-16T23:49:52.768Z,19.01
2023-04-16T23:52:19.664Z,19.03
2023-04-16T23:54:46.622Z,19.03
2023-04-16T23:57:13.758Z,19.04
2023-04-16T23:59:40.728Z,19.04
